createdAt,value
2022-11-21T00:04:46.961Z,99289.14
2022-11-21T00:09:49.968Z,99288.49
2022-11-21T00:14:53.077Z,99281.13
2022-11-21T00:19:56.055Z,99277.14
2022-11-21T00:24:59.343Z,99269.97
2022-11-21T00:30:02.211Z,99274.65
2022-11-21T00:35:06.635Z,99279.53
2022-11-21T00:40:10.505Z,99274.79
2022-11-21T00:45:13.469Z,99285.37
2022-11-21T00:50:16.583Z,99291.80
2022-11-21T00:55:19.482Z,99290.71
2022-11-21T01:00:22.489Z,99294.83
2022-11-21T01:05:25.392Z,99295.08
2022-11-21T01:10:28.296Z,99300.52
2022-11-21T01:15:31.506Z,99300.26
2022-11-21T01:20:34.411Z,99305.07
2022-11-21T01:25:37.520Z,99304.64
2022-11-21T01:30:40.529Z,99308.73
2022-11-21T01:35:43.532Z,99314.36
2022-11-21T01:40:46.537Z,99325.05
2022-11-21T01:45:55.487Z,99325.27
2022-11-21T01:51:05.916Z,99318.11
2022-11-21T01:56:09.814Z,99309.55
2022-11-21T02:01:13.282Z,99317.11
2022-11-21T02:06:16.829Z,99307.23
2022-11-21T02:11:41.294Z,99298.60
2022-11-21T02:16:44.549Z,99294.39
2022-11-21T02:22:12.529Z,99300.85
2022-11-21T02:27:16.664Z,99308.54
2022-11-21T02:32:33.916Z,99319.43
2022-11-21T02:37:37.747Z,99319.68
2022-11-21T02:43:03.889Z,99314.41
2022-11-21T02:48:07.822Z,99311.17
2022-11-21T02:53:13.606Z,99303.86
2022-11-21T02:58:16.699Z,99306.66
2022-11-21T03:03:19.702Z,99309.54
2022-11-21T03:08:22.914Z,99314.43
2022-11-21T03:13:25.819Z,99315.98
2022-11-21T03:18:28.825Z,99315.54
2022-11-21T03:23:31.933Z,99317.33
2022-11-21T03:28:35.102Z,99319.85
2022-11-21T03:33:38.048Z,99319.45
2022-11-21T03:38:41.263Z,99329.00
2022-11-21T03:43:44.266Z,99342.20
2022-11-21T03:48:47.475Z,99338.33
2022-11-21T03:53:50.687Z,99339.43
2022-11-21T03:58:54.629Z,99333.98
2022-11-21T04:03:58.726Z,99333.71
2022-11-21T04:09:01.753Z,99334.33
2022-11-21T04:14:04.863Z,99326.88
2022-11-21T04:19:07.868Z,99323.23
2022-11-21T04:24:11.188Z,99327.16
2022-11-21T04:29:14.189Z,99327.18
2022-11-21T04:34:17.404Z,99321.27
2022-11-21T04:39:20.304Z,99321.79
2022-11-21T04:44:23.313Z,99319.95
2022-11-21T04:49:26.214Z,99323.67
2022-11-21T04:54:29.423Z,99329.34
2022-11-21T04:59:32.534Z,99336.52
2022-11-21T05:04:35.540Z,99341.55
2022-11-21T05:09:38.548Z,99340.20
2022-11-21T05:14:41.552Z,99332.95
2022-11-21T05:19:44.562Z,99332.71
2022-11-21T05:24:47.566Z,99332.00
2022-11-21T05:29:50.579Z,99330.08
2022-11-21T05:34:53.682Z,99331.73
2022-11-21T05:39:56.796Z,99321.97
2022-11-21T05:44:59.797Z,99319.34
2022-11-21T05:50:02.802Z,99308.73
2022-11-21T05:55:06.171Z,99309.51
2022-11-21T06:00:10.017Z,99307.10
2022-11-21T06:05:12.953Z,99303.00
2022-11-21T06:10:18.008Z,99292.33
2022-11-21T06:15:21.009Z,99297.52
2022-11-21T06:20:24.120Z,99296.08
2022-11-21T06:25:27.125Z,99300.28
2022-11-21T06:30:30.233Z,99298.09
2022-11-21T06:35:37.343Z,99293.48
2022-11-21T06:40:41.061Z,99295.05
2022-11-21T06:45:44.065Z,99293.52
2022-11-21T06:50:47.166Z,99303.44
2022-11-21T06:55:50.286Z,99306.25
2022-11-21T07:00:53.525Z,99315.97
2022-11-21T07:06:00.907Z,99321.14
2022-11-21T07:16:32.619Z,99310.27
2022-11-21T07:21:35.734Z,99319.43
2022-11-21T07:26:38.749Z,99316.52
2022-11-21T07:31:41.848Z,99315.11
2022-11-21T07:36:45.064Z,99320.64
2022-11-21T07:41:48.272Z,99324.61
2022-11-21T07:46:55.754Z,99331.89
2022-11-21T07:51:58.684Z,99337.29
2022-11-21T07:57:01.794Z,99340.34
2022-11-21T08:02:05.166Z,99333.66
2022-11-21T08:07:10.910Z,99329.02
2022-11-21T08:12:14.507Z,99331.95
2022-11-21T08:17:18.833Z,99335.80
2022-11-21T08:22:21.875Z,99337.27
2022-11-21T08:27:24.952Z,99338.06
2022-11-21T08:32:27.959Z,99325.73
2022-11-21T08:37:31.243Z,99323.15
2022-11-21T08:42:34.381Z,99328.55
2022-11-21T08:47:37.716Z,99325.46
2022-11-21T08:52:41.009Z,99329.07
2022-11-21T08:57:44.124Z,99328.90
2022-11-21T09:02:47.226Z,99333.12
2022-11-21T09:07:57.521Z,99333.73
2022-11-21T09:13:00.724Z,99335.93
2022-11-21T09:18:04.794Z,99338.98
2022-11-21T09:23:13.532Z,99334.73
2022-11-21T09:28:16.593Z,99330.95
2022-11-21T09:33:19.807Z,99328.53
2022-11-21T09:38:24.418Z,99320.34
2022-11-21T09:43:55.512Z,99310.71
2022-11-21T09:49:07.738Z,99317.48
2022-11-21T09:54:10.744Z,99315.67
2022-11-21T09:59:29.417Z,99320.10
2022-11-21T10:04:32.623Z,99314.42
2022-11-21T10:10:23.668Z,99313.04
2022-11-21T10:15:51.776Z,99304.92
2022-11-21T10:21:18.008Z,99293.96
2022-11-21T10:26:39.343Z,99298.32
2022-11-21T10:31:43.841Z,99297.13
2022-11-21T10:37:01.754Z,99292.84
2022-11-21T10:42:23.150Z,99276.34
2022-11-21T10:47:33.885Z,99280.17
2022-11-21T10:52:45.603Z,99280.81
2022-11-21T10:57:51.145Z,99280.63
2022-11-21T11:02:57.019Z,99281.58
2022-11-21T11:08:03.505Z,99282.08
2022-11-21T11:19:35.644Z,99272.63
2022-11-21T11:24:57.483Z,99270.30
2022-11-21T11:30:07.558Z,99271.18
2022-11-21T11:35:13.615Z,99278.16
2022-11-21T11:40:37.224Z,99276.88
2022-11-21T11:46:25.389Z,99276.69
2022-11-21T11:51:38.636Z,99276.79
2022-11-21T11:56:43.596Z,99275.89
2022-11-21T12:01:52.816Z,99272.44
2022-11-21T12:12:42.678Z,99282.61
2022-11-21T12:17:54.706Z,99283.52
2022-11-21T12:22:58.120Z,99275.28
2022-11-21T12:28:03.472Z,99268.95
2022-11-21T12:33:22.663Z,99269.31
2022-11-21T12:39:06.524Z,99264.86
2022-11-21T12:44:09.536Z,99263.80
2022-11-21T12:49:51.984Z,99258.11
2022-11-21T12:55:00.911Z,99253.27
2022-11-21T13:00:24.084Z,99250.97
2022-11-21T13:05:30.687Z,99250.27
2022-11-21T13:10:34.375Z,99251.08
2022-11-21T13:16:06.700Z,99252.09
2022-11-21T13:21:42.266Z,99249.77
2022-11-21T13:26:51.545Z,99250.27
2022-11-21T13:31:54.534Z,99255.73
2022-11-21T13:36:57.840Z,99249.33
2022-11-21T13:42:22.658Z,99247.92
2022-11-21T13:47:25.920Z,99249.26
2022-11-21T13:52:40.978Z,99244.91
2022-11-21T13:57:53.182Z,99238.66
2022-11-21T14:03:08.887Z,99238.25
2022-11-21T14:08:27.770Z,99235.33
2022-11-21T14:13:34.605Z,99241.33
2022-11-21T14:18:39.086Z,99240.13
2022-11-21T14:23:44.463Z,99240.47
2022-11-21T14:28:48.179Z,99243.02
2022-11-21T14:33:58.451Z,99245.56
2022-11-21T14:39:35.492Z,99244.70
2022-11-21T14:44:31.843Z,99237.85
2022-11-21T14:49:35.023Z,99241.96
2022-11-21T14:55:06.126Z,99241.09
2022-11-21T15:00:36.112Z,99240.77
2022-11-21T15:06:08.624Z,99232.58
2022-11-21T15:11:03.493Z,99225.90
2022-11-21T15:16:06.653Z,99230.55
2022-11-21T15:21:14.574Z,99232.61
2022-11-21T15:26:33.463Z,99217.04
2022-11-21T15:31:36.463Z,99212.40
2022-11-21T15:36:39.572Z,99215.67
2022-11-21T15:41:42.574Z,99209.50
2022-11-21T15:46:47.183Z,99203.70
2022-11-21T15:52:06.630Z,99203.04
2022-11-21T15:57:10.811Z,99200.96
2022-11-21T16:02:14.665Z,99197.20
2022-11-21T16:07:17.870Z,99199.10
2022-11-21T16:12:21.102Z,99199.45
2022-11-21T16:17:24.103Z,99200.69
2022-11-21T16:22:27.113Z,99200.38
2022-11-21T16:27:32.538Z,99203.65
2022-11-21T16:32:35.572Z,99198.50
2022-11-21T16:37:38.684Z,99196.79
2022-11-21T16:42:41.690Z,99192.34
2022-11-21T16:47:48.812Z,99191.83
2022-11-21T16:52:52.416Z,99191.64
2022-11-21T16:57:58.188Z,99192.64
2022-11-21T17:03:01.504Z,99192.60
2022-11-21T17:08:04.612Z,99192.07
2022-11-21T17:13:07.820Z,99191.38
2022-11-21T17:18:11.236Z,99191.58
2022-11-21T17:23:14.348Z,99193.83
2022-11-21T17:28:17.459Z,99201.58
2022-11-21T17:33:22.005Z,99196.95
2022-11-21T17:38:25.107Z,99194.05
2022-11-21T17:43:29.156Z,99191.14
2022-11-21T17:48:33.627Z,99189.61
2022-11-21T17:53:38.779Z,99190.80
2022-11-21T17:58:41.839Z,99190.31
2022-11-21T18:03:47.099Z,99187.25
2022-11-21T18:08:50.312Z,99191.73
2022-11-21T18:13:53.525Z,99188.67
2022-11-21T18:19:00.292Z,99189.05
2022-11-21T18:24:03.937Z,99194.04
2022-11-21T18:34:32.583Z,99182.10
2022-11-21T18:39:35.690Z,99173.17
2022-11-21T18:44:38.694Z,99175.89
2022-11-21T18:49:41.710Z,99177.46
2022-11-21T18:54:44.912Z,99178.52
2022-11-21T18:59:48.122Z,99175.09
2022-11-21T19:04:51.230Z,99176.15
2022-11-21T19:09:54.244Z,99178.58
2022-11-21T19:14:57.248Z,99178.77
2022-11-21T19:20:00.251Z,99175.01
2022-11-21T19:25:03.256Z,99177.10
2022-11-21T19:30:06.843Z,99182.62
2022-11-21T19:35:10.691Z,99186.24
2022-11-21T19:40:13.918Z,99187.29
2022-11-21T19:45:17.027Z,99198.30
2022-11-21T19:50:20.029Z,99201.41
2022-11-21T19:55:23.342Z,99201.26
2022-11-21T20:00:26.250Z,99199.23
2022-11-21T20:05:29.278Z,99205.08
2022-11-21T20:10:35.530Z,99208.52
2022-11-21T20:15:39.568Z,99204.92
2022-11-21T20:20:42.575Z,99202.02
2022-11-21T20:25:50.280Z,99202.03
2022-11-21T20:30:53.299Z,99207.56
2022-11-21T20:36:03.346Z,99207.08
2022-11-21T20:41:06.384Z,99206.72
2022-11-21T20:46:14.088Z,99209.14
2022-11-21T20:52:31.467Z,99217.38
2022-11-21T20:56:44.544Z,99221.35
2022-11-21T21:01:47.966Z,99216.92
2022-11-21T21:06:51.005Z,99218.33
2022-11-21T21:11:54.226Z,99216.44
2022-11-21T21:16:57.526Z,99220.25
2022-11-21T21:22:00.744Z,99222.13
2022-11-21T21:27:03.849Z,99219.90
2022-11-21T21:32:07.171Z,99219.54
2022-11-21T21:37:10.379Z,99218.00
2022-11-21T21:42:13.583Z,99223.82
2022-11-21T21:47:17.421Z,99222.27
2022-11-21T21:52:20.620Z,99226.25
2022-11-21T21:57:23.524Z,99230.21
2022-11-21T22:02:26.633Z,99227.67
2022-11-21T22:07:29.675Z,99220.64
2022-11-21T22:12:32.955Z,99221.34
2022-11-21T22:17:35.857Z,99219.83
2022-11-21T22:22:38.969Z,99225.52
2022-11-21T22:27:42.083Z,99228.62
2022-11-21T22:32:45.388Z,99228.65
2022-11-21T22:37:51.877Z,99234.84
2022-11-21T22:42:54.883Z,99237.62
2022-11-21T22:47:57.785Z,99233.52
2022-11-21T22:53:00.896Z,99237.99
2022-11-21T22:58:03.802Z,99226.52
2022-11-21T23:03:06.911Z,99218.63
2022-11-21T23:08:10.221Z,99223.95
2022-11-21T23:13:13.231Z,99230.48
2022-11-21T23:18:16.233Z,99225.50
2022-11-21T23:23:20.533Z,99215.87
2022-11-21T23:28:23.988Z,99208.45
2022-11-21T23:33:26.995Z,99214.14
2022-11-21T23:38:30.002Z,99216.39
2022-11-21T23:43:33.218Z,99211.23
2022-11-21T23:48:36.325Z,99215.89
2022-11-21T23:53:39.531Z,99221.71
2022-11-21T23:58:42.538Z,99223.64
